Time;durP1;ratioP1;P1;durP2;ratioP2;P2;SDS_P1;SDS_P2;PMS_P1;PMS_P2;Temp;Humidity;BMP_temperature;BMP_pressure;BME280_temperature;BME280_humidity;BME280_pressure;Samples;Min_cycle;Max_cycle;Signal;HPM_P1;HPM_P2
2023/05/30 00:01:20;;;;;;;3.75;2.60;;;18.80;61.00;;;;;;6176625;22;20016;-51
2023/05/30 00:03:46;;;;;;;3.13;2.38;;;18.80;60.80;;;;;;6176517;22;20084;-53
2023/05/30 00:06:13;;;;;;;3.38;2.53;;;18.80;61.00;;;;;;6176318;22;20057;-53
2023/05/30 00:08:42;;;;;;;4.60;2.83;;;18.80;61.00;;;;;;6177139;22;20084;-53
2023/05/30 00:11:08;;;;;;;3.65;2.65;;;18.80;61.10;;;;;;6176479;22;20425;-50
2023/05/30 00:13:34;;;;;;;3.67;2.70;;;18.80;61.40;;;;;;6176586;22;20050;-51
2023/05/30 00:16:01;;;;;;;3.08;2.75;;;18.80;61.60;;;;;;6176347;22;20088;-51
2023/05/30 00:18:34;;;;;;;4.28;2.80;;;18.80;61.50;;;;;;6176879;22;20009;-55
2023/05/30 00:21:03;;;;;;;4.70;2.72;;;18.80;61.20;;;;;;6177253;22;20001;-52
2023/05/30 00:23:30;;;;;;;4.93;3.03;;;18.70;61.20;;;;;;6176095;22;20520;-53
2023/05/30 00:25:56;;;;;;;4.22;2.80;;;18.70;61.50;;;;;;6176329;22;20374;-53
2023/05/30 00:28:22;;;;;;;4.60;3.00;;;18.70;61.70;;;;;;6176962;22;20009;-52
2023/05/30 00:30:48;;;;;;;5.68;3.10;;;18.70;61.70;;;;;;6176385;22;20035;-51
2023/05/30 00:33:14;;;;;;;4.57;2.92;;;18.70;61.90;;;;;;6177137;22;20013;-52
2023/05/30 00:35:40;;;;;;;3.45;2.60;;;18.70;62.00;;;;;;6177885;22;20039;-53
2023/05/30 00:38:06;;;;;;;4.57;3.00;;;18.70;62.00;;;;;;6177966;22;20015;-50
2023/05/30 00:40:31;;;;;;;4.07;2.70;;;18.60;62.10;;;;;;6178576;22;20044;-54
2023/05/30 00:42:57;;;;;;;5.47;2.90;;;18.60;62.40;;;;;;6177672;22;20013;-50
2023/05/30 00:45:23;;;;;;;4.25;2.70;;;18.60;62.30;;;;;;6177887;22;20425;-52
2023/05/30 00:47:50;;;;;;;4.53;2.95;;;18.50;62.20;;;;;;6177717;22;20043;-54
2023/05/30 00:50:18;;;;;;;3.47;2.50;;;18.50;62.40;;;;;;6178133;22;20005;-53
2023/05/30 00:52:45;;;;;;;2.80;2.60;;;18.50;62.90;;;;;;6178286;22;20009;-55
2023/05/30 00:55:11;;;;;;;4.75;2.70;;;18.50;62.80;;;;;;6177618;22;20038;-53
2023/05/30 00:57:38;;;;;;;4.15;2.67;;;18.50;62.90;;;;;;6178094;22;20451;-54
2023/05/30 01:00:04;;;;;;;4.07;2.75;;;18.40;62.90;;;;;;6177475;22;20013;-52
2023/05/30 01:02:33;;;;;;;6.93;3.17;;;18.50;63.00;;;;;;6176723;22;20071;-54
2023/05/30 01:04:59;;;;;;;8.63;2.78;;;18.40;63.00;;;;;;6176783;22;20089;-53
2023/05/30 01:07:25;;;;;;;4.93;2.70;;;18.40;62.90;;;;;;6177449;22;20009;-51
2023/05/30 01:09:52;;;;;;;4.82;3.00;;;18.40;63.10;;;;;;6177944;22;20050;-53
2023/05/30 01:12:55;;;;;;;5.28;2.90;;;18.40;63.40;;;;;;6178480;22;20005;-49
2023/05/30 01:15:26;;;;;;;3.78;2.80;;;18.40;63.80;;;;;;6195298;22;20009;-52
2023/05/30 01:18:00;;;;;;;3.17;2.75;;;18.40;63.90;;;;;;6177390;22;20277;-54
2023/05/30 01:20:28;;;;;;;4.70;2.80;;;18.40;64.00;;;;;;6178111;22;20717;-53
2023/05/30 01:23:30;;;;;;;3.88;2.83;;;18.40;64.10;;;;;;6176848;23;20521;-52
2023/05/30 01:26:26;;;;;;;4.88;3.08;;;18.40;64.00;;;;;;6178196;22;20006;-55
2023/05/30 01:28:55;;;;;;;7.45;3.65;;;18.40;64.10;;;;;;6178461;22;20074;-51
2023/05/30 01:31:23;;;;;;;5.20;3.05;;;18.30;63.90;;;;;;6177109;22;20016;-53
2023/05/30 01:33:50;;;;;;;5.53;3.28;;;18.30;63.80;;;;;;6176991;22;20074;-53
2023/05/30 01:36:16;;;;;;;3.50;3.08;;;18.30;63.90;;;;;;6177732;22;20059;-52
2023/05/30 01:38:42;;;;;;;4.90;2.70;;;18.30;63.90;;;;;;6177796;22;20013;-49
2023/05/30 01:41:21;;;;;;;4.60;2.80;;;18.30;63.90;;;;;;6177738;22;20084;-53
2023/05/30 01:43:56;;;;;;;6.28;3.05;;;18.30;63.60;;;;;;6177614;22;20001;-50
2023/05/30 01:46:34;;;;;;;8.55;3.45;;;18.30;63.60;;;;;;6177335;22;20397;-53
2023/05/30 01:49:31;;;;;;;5.15;3.20;;;18.30;63.60;;;;;;6176507;22;19997;-52
2023/05/30 01:52:17;;;;;;;5.30;3.47;;;18.30;63.10;;;;;;6177843;22;20096;-52
2023/05/30 01:54:47;;;;;;;3.67;3.10;;;18.20;63.10;;;;;;6177873;22;20001;-52
2023/05/30 01:57:15;;;;;;;4.72;3.00;;;18.30;63.40;;;;;;6177708;22;20032;-53
2023/05/30 01:59:42;;;;;;;5.35;3.80;;;18.30;63.50;;;;;;6177916;22;20093;-52
2023/05/30 02:02:09;;;;;;;5.80;3.30;;;18.20;63.40;;;;;;6177614;22;20329;-50
2023/05/30 02:04:35;;;;;;;5.88;3.20;;;18.20;63.40;;;;;;6175324;22;20001;-52
2023/05/30 02:07:02;;;;;;;5.85;3.22;;;18.20;63.40;;;;;;6177826;22;19998;-51
2023/05/30 02:09:27;;;;;;;5.38;3.70;;;18.20;63.30;;;;;;6177865;23;20001;-51
2023/05/30 02:11:53;;;;;;;4.45;3.65;;;18.20;63.30;;;;;;6178411;23;20036;-54
2023/05/30 02:14:19;;;;;;;4.28;3.35;;;18.20;63.20;;;;;;6178079;22;20043;-53
2023/05/30 02:16:45;;;;;;;5.00;3.38;;;18.20;63.00;;;;;;6280914;22;20009;-52
2023/05/30 02:19:12;;;;;;;5.20;3.20;;;18.20;62.80;;;;;;6177227;22;20012;-53
2023/05/30 02:21:38;;;;;;;5.70;3.50;;;18.20;62.70;;;;;;6177075;22;20080;-53
2023/05/30 02:24:04;;;;;;;4.55;3.17;;;18.20;62.80;;;;;;6176935;22;20459;-53
2023/05/30 02:26:29;;;;;;;4.63;3.53;;;18.20;62.90;;;;;;6178095;22;20005;-51
2023/05/30 02:28:55;;;;;;;4.60;3.47;;;18.20;63.00;;;;;;6177850;22;20001;-50
2023/05/30 02:31:22;;;;;;;6.07;4.28;;;18.20;62.90;;;;;;6178060;22;20012;-52
2023/05/30 02:33:47;;;;;;;6.82;4.20;;;18.20;62.90;;;;;;6177842;22;20337;-53
2023/05/30 02:36:14;;;;;;;5.72;3.75;;;18.20;62.90;;;;;;6176877;22;20013;-51
2023/05/30 02:38:39;;;;;;;5.72;3.55;;;18.20;63.00;;;;;;6177345;22;20005;-52
2023/05/30 02:41:05;;;;;;;4.60;2.92;;;18.20;62.90;;;;;;6177651;22;20005;-51
2023/05/30 02:43:30;;;;;;;4.47;3.30;;;18.20;62.90;;;;;;6177413;22;20009;-50
2023/05/30 02:45:56;;;;;;;5.97;3.47;;;18.20;62.90;;;;;;6177731;22;20031;-50
2023/05/30 02:48:21;;;;;;;4.97;3.35;;;18.30;62.90;;;;;;6177325;22;20005;-49
2023/05/30 02:50:47;;;;;;;3.83;2.97;;;18.30;63.00;;;;;;6177057;22;20008;-51
2023/05/30 02:53:13;;;;;;;5.72;3.40;;;18.30;62.90;;;;;;6177333;22;20009;-52
2023/05/30 02:55:42;;;;;;;4.45;3.30;;;18.30;62.70;;;;;;6175877;22;20009;-52
2023/05/30 02:58:08;;;;;;;4.40;3.15;;;18.40;63.40;;;;;;6177406;22;20012;-52
2023/05/30 03:00:34;;;;;;;4.22;3.15;;;18.40;62.60;;;;;;6177403;22;20005;-54
2023/05/30 03:02:59;;;;;;;5.25;3.28;;;18.40;62.30;;;;;;6176649;22;20007;-53
2023/05/30 03:05:25;;;;;;;4.63;3.38;;;18.40;63.00;;;;;;6177266;22;20005;-54
2023/05/30 03:07:51;;;;;;;5.20;3.25;;;18.50;62.50;;;;;;6177193;22;20001;-54
2023/05/30 03:10:17;;;;;;;4.03;3.10;;;18.50;62.70;;;;;;6176774;22;20400;-52
2023/05/30 03:12:43;;;;;;;4.80;3.05;;;18.60;62.20;;;;;;6176914;22;20040;-54
2023/05/30 03:15:09;;;;;;;4.20;3.10;;;18.60;62.20;;;;;;6177353;22;20032;-51
2023/05/30 03:17:35;;;;;;;4.63;2.95;;;18.70;62.10;;;;;;6177721;22;20070;-55
2023/05/30 03:20:00;;;;;;;3.85;2.92;;;18.70;61.80;;;;;;6177290;22;20333;-53
2023/05/30 03:22:26;;;;;;;6.07;3.33;;;18.80;61.80;;;;;;6176028;22;20080;-53
2023/05/30 03:24:51;;;;;;;5.55;3.70;;;18.90;61.70;;;;;;6176776;22;20341;-53
2023/05/30 03:27:17;;;;;;;5.80;3.80;;;19.10;61.60;;;;;;6177546;22;20024;-50
2023/05/30 03:29:43;;;;;;;4.40;3.80;;;19.20;62.00;;;;;;6176507;22;20394;-52
2023/05/30 03:32:10;;;;;;;6.30;3.10;;;19.40;62.10;;;;;;6177741;22;20367;-53
2023/05/30 03:34:36;;;;;;;5.55;3.10;;;19.80;62.00;;;;;;6177625;22;20013;-52
2023/05/30 03:37:02;;;;;;;3.35;2.45;;;20.10;62.00;;;;;;6177672;22;20016;-53
2023/05/30 03:39:28;;;;;;;6.70;2.95;;;20.50;60.60;;;;;;6176700;22;20429;-53
2023/05/30 03:41:53;;;;;;;3.83;2.60;;;21.00;60.00;;;;;;6176500;22;20394;-52
2023/05/30 03:44:21;;;;;;;2.67;2.45;;;21.60;59.10;;;;;;6176063;22;20001;-52
2023/05/30 03:46:47;;;;;;;2.67;2.45;;;22.20;58.00;;;;;;6174678;22;20074;-52
2023/05/30 03:49:12;;;;;;;3.20;2.60;;;23.00;56.40;;;;;;6175241;22;20001;-53
2023/05/30 03:51:38;;;;;;;3.35;2.55;;;23.80;55.40;;;;;;6175556;22;20009;-55
2023/05/30 03:54:04;;;;;;;3.03;2.70;;;24.60;54.10;;;;;;6175020;22;20012;-53
2023/05/30 03:56:29;;;;;;;3.63;2.20;;;25.30;53.20;;;;;;6174939;22;20005;-53
2023/05/30 03:58:55;;;;;;;3.97;2.40;;;26.00;52.00;;;;;;6175131;22;20005;-53
2023/05/30 04:01:20;;;;;;;2.90;2.47;;;26.70;51.10;;;;;;6174362;22;20012;-51
2023/05/30 04:03:46;;;;;;;3.70;2.38;;;27.30;50.10;;;;;;6170055;22;20090;-49
2023/05/30 04:06:13;;;;;;;3.70;2.65;;;27.90;49.10;;;;;;6277609;22;20106;-52
2023/05/30 04:08:40;;;;;;;3.42;2.42;;;28.50;48.30;;;;;;6173428;22;20001;-52
2023/05/30 04:11:08;;;;;;;5.10;2.78;;;29.00;47.40;;;;;;6174072;22;19998;-51
2023/05/30 04:13:34;;;;;;;3.60;2.35;;;29.50;46.40;;;;;;6171903;22;20037;-54
2023/05/30 04:16:00;;;;;;;5.28;2.65;;;29.90;45.80;;;;;;6171304;22;20016;-52
2023/05/30 04:18:26;;;;;;;3.30;2.28;;;30.40;45.60;;;;;;6173944;23;20005;-48
2023/05/30 04:20:52;;;;;;;4.07;2.40;;;30.80;45.00;;;;;;6177370;22;20009;-52
2023/05/30 04:23:17;;;;;;;3.45;2.38;;;31.20;44.40;;;;;;6177927;22;20345;-51
2023/05/30 04:25:44;;;;;;;3.90;2.47;;;31.50;43.90;;;;;;6178147;22;20013;-52
2023/05/30 04:28:16;;;;;;;4.57;2.40;;;31.90;43.30;;;;;;6178542;22;20017;-52
2023/05/30 04:30:48;;;;;;;4.38;2.30;;;32.20;42.90;;;;;;6177281;23;20858;-52
2023/05/30 04:33:15;;;;;;;4.00;2.35;;;32.50;42.40;;;;;;6177822;22;20037;-54
2023/05/30 04:35:42;;;;;;;2.53;2.10;;;32.80;42.20;;;;;;6178140;22;20009;-53
2023/05/30 04:38:09;;;;;;;2.80;2.30;;;33.10;41.90;;;;;;6177406;22;20013;-54
2023/05/30 04:40:36;;;;;;;2.55;2.22;;;33.30;41.60;;;;;;6177174;22;20005;-52
2023/05/30 04:43:02;;;;;;;3.47;2.20;;;33.50;41.50;;;;;;6178106;22;20098;-53
2023/05/30 04:45:29;;;;;;;4.00;2.60;;;33.70;40.80;;;;;;6176452;22;20076;-51
2023/05/30 04:47:55;;;;;;;3.65;2.53;;;33.90;40.70;;;;;;6174728;22;20036;-52
2023/05/30 04:50:24;;;;;;;5.53;2.65;;;34.10;40.60;;;;;;6173380;22;19997;-53
2023/05/30 04:52:49;;;;;;;3.30;2.38;;;34.20;40.30;;;;;;6174633;22;20005;-52
2023/05/30 04:55:17;;;;;;;3.42;2.10;;;34.40;40.10;;;;;;6175985;22;20009;-55
2023/05/30 04:57:42;;;;;;;5.47;2.45;;;34.50;39.90;;;;;;6176155;22;20445;-51
2023/05/30 05:00:13;;;;;;;3.28;2.70;;;34.50;39.70;;;;;;6175836;22;20084;-52
2023/05/30 05:02:40;;;;;;;2.58;2.38;;;34.30;39.60;;;;;;6176386;22;20497;-53
2023/05/30 05:05:06;;;;;;;2.92;2.20;;;34.10;39.60;;;;;;6174554;22;20036;-53
2023/05/30 05:07:32;;;;;;;2.38;2.15;;;33.90;39.60;;;;;;6279435;22;19997;-54
2023/05/30 05:09:57;;;;;;;3.85;2.47;;;33.70;39.60;;;;;;6175139;22;20452;-55
2023/05/30 05:12:23;;;;;;;3.03;2.30;;;33.50;39.70;;;;;;6174396;22;20005;-55
2023/05/30 05:14:50;;;;;;;3.95;2.97;;;33.50;39.70;;;;;;6175083;22;20009;-53
2023/05/30 05:17:15;;;;;;;3.92;2.35;;;33.50;39.60;;;;;;6175212;23;20137;-54
2023/05/30 05:19:41;;;;;;;3.58;2.33;;;33.50;39.40;;;;;;6176360;22;20084;-50
2023/05/30 05:22:07;;;;;;;4.10;2.70;;;33.30;39.30;;;;;;6281054;22;20013;-52
2023/05/30 05:24:32;;;;;;;5.25;2.75;;;32.90;39.40;;;;;;6176159;22;20009;-52
2023/05/30 05:26:58;;;;;;;3.17;2.63;;;32.30;39.90;;;;;;6176163;22;19997;-52
2023/05/30 05:29:24;;;;;;;3.30;2.65;;;31.40;40.30;;;;;;6177342;22;20072;-52
2023/05/30 05:31:50;;;;;;;4.70;2.67;;;30.60;41.40;;;;;;6176503;22;20005;-50
2023/05/30 05:34:16;;;;;;;2.83;2.33;;;29.80;42.00;;;;;;6177122;22;20074;-50
2023/05/30 05:36:44;;;;;;;3.80;2.45;;;29.10;43.00;;;;;;6176724;22;20009;-53
2023/05/30 05:39:10;;;;;;;4.63;2.88;;;28.40;43.60;;;;;;6169269;23;20081;-52
2023/05/30 05:41:35;;;;;;;7.10;2.75;;;27.80;44.70;;;;;;6170242;22;20100;-52
2023/05/30 05:44:01;;;;;;;4.57;2.70;;;27.30;45.50;;;;;;6171820;22;20001;-50
2023/05/30 05:46:27;;;;;;;5.18;2.88;;;26.90;46.20;;;;;;6172380;22;20028;-54
2023/05/30 05:48:54;;;;;;;4.43;3.00;;;26.40;46.80;;;;;;6170492;22;20009;-52
2023/05/30 05:51:20;;;;;;;5.68;3.10;;;26.10;47.40;;;;;;6171393;22;20346;-53
2023/05/30 05:53:46;;;;;;;3.60;3.08;;;25.80;48.10;;;;;;6172162;22;20005;-53
2023/05/30 05:56:11;;;;;;;4.10;3.10;;;25.60;48.40;;;;;;6174773;22;20013;-49
2023/05/30 05:58:37;;;;;;;4.28;3.08;;;25.40;49.10;;;;;;6171639;22;20008;-54
2023/05/30 06:01:03;;;;;;;4.13;2.95;;;25.20;49.50;;;;;;6176009;22;20084;-54
2023/05/30 06:03:28;;;;;;;6.82;3.35;;;25.00;49.80;;;;;;6172555;22;20015;-51
2023/05/30 06:05:54;;;;;;;5.05;3.10;;;24.90;50.20;;;;;;6174879;22;20005;-53
2023/05/30 06:08:19;;;;;;;6.70;3.65;;;24.80;50.70;;;;;;6171820;22;20039;-54
2023/05/30 06:10:45;;;;;;;5.55;3.22;;;24.70;50.80;;;;;;6165124;22;20005;-49
2023/05/30 06:13:11;;;;;;;5.10;3.20;;;24.60;51.00;;;;;;6166848;23;20008;-53
2023/05/30 06:15:36;;;;;;;4.25;3.22;;;24.50;51.90;;;;;;6167809;22;20447;-54
2023/05/30 06:18:02;;;;;;;5.63;3.40;;;24.40;51.80;;;;;;6171494;22;20075;-52
2023/05/30 06:20:27;;;;;;;5.38;3.35;;;24.40;51.90;;;;;;6171811;22;20613;-52
2023/05/30 06:22:53;;;;;;;4.35;3.20;;;24.30;52.30;;;;;;6171212;22;20013;-53
2023/05/30 06:25:19;;;;;;;3.35;2.92;;;24.20;52.70;;;;;;6170087;22;20016;-52
2023/05/30 06:27:44;;;;;;;4.03;3.05;;;24.20;53.00;;;;;;6171353;23;20009;-53
2023/05/30 06:30:10;;;;;;;4.55;3.20;;;24.20;53.30;;;;;;6170106;22;20029;-54
2023/05/30 06:32:36;;;;;;;4.55;3.00;;;24.10;53.30;;;;;;6165731;22;20013;-52
2023/05/30 06:35:01;;;;;;;4.28;2.85;;;24.10;53.40;;;;;;6168254;22;20017;-52
2023/05/30 06:37:27;;;;;;;4.40;3.20;;;24.10;53.30;;;;;;6169670;22;20005;-51
2023/05/30 06:39:52;;;;;;;3.90;2.72;;;24.10;53.60;;;;;;6171993;22;20005;-54
2023/05/30 06:42:20;;;;;;;5.18;3.00;;;24.10;53.90;;;;;;6170460;22;20013;-53
2023/05/30 06:44:45;;;;;;;4.38;3.00;;;24.00;54.30;;;;;;6170398;22;19997;-52
2023/05/30 06:47:11;;;;;;;3.60;2.88;;;24.00;54.50;;;;;;6165588;22;20114;-54
2023/05/30 06:49:36;;;;;;;4.28;3.05;;;24.00;54.20;;;;;;6170609;22;20001;-53
2023/05/30 06:52:02;;;;;;;6.47;3.25;;;24.00;54.30;;;;;;6167919;22;20009;-52
2023/05/30 06:54:28;;;;;;;5.05;2.78;;;24.00;54.20;;;;;;6167373;22;20463;-55
2023/05/30 06:56:53;;;;;;;4.40;2.50;;;24.00;54.50;;;;;;6163120;22;20013;-52
2023/05/30 06:59:19;;;;;;;3.88;2.75;;;23.90;54.50;;;;;;6165908;22;20053;-52
2023/05/30 07:01:45;;;;;;;3.75;2.67;;;24.00;55.10;;;;;;6165908;22;20012;-53
2023/05/30 07:04:11;;;;;;;3.35;2.78;;;24.00;54.60;;;;;;6161582;22;20050;-52
2023/05/30 07:06:36;;;;;;;5.07;2.97;;;24.00;54.50;;;;;;6158429;22;20051;-55
2023/05/30 07:09:02;;;;;;;3.80;2.88;;;24.10;54.30;;;;;;6167682;22;20041;-53
2023/05/30 07:11:28;;;;;;;4.78;2.78;;;24.10;54.30;;;;;;6161330;22;20016;-53
2023/05/30 07:13:53;;;;;;;4.72;2.90;;;24.10;54.30;;;;;;6159467;22;20005;-51
2023/05/30 07:16:19;;;;;;;3.25;2.80;;;24.20;54.10;;;;;;6163111;22;20708;-51
2023/05/30 07:18:45;;;;;;;4.00;2.60;;;24.20;53.80;;;;;;6163144;22;20377;-55
2023/05/30 07:21:10;;;;;;;4.68;2.53;;;24.30;53.60;;;;;;6166106;22;20479;-55
2023/05/30 07:23:36;;;;;;;2.90;2.50;;;24.30;53.20;;;;;;6165083;22;20425;-54
2023/05/30 07:26:01;;;;;;;3.42;2.75;;;24.40;52.90;;;;;;6167087;22;20695;-55
2023/05/30 07:28:27;;;;;;;3.97;2.60;;;24.40;52.60;;;;;;6169077;22;20520;-54
2023/05/30 07:30:53;;;;;;;2.60;2.40;;;24.40;52.10;;;;;;6163002;22;20027;-52
2023/05/30 07:33:18;;;;;;;3.17;2.50;;;24.50;51.70;;;;;;6161781;22;20461;-50
2023/05/30 07:35:45;;;;;;;4.13;2.78;;;24.50;51.40;;;;;;6160958;22;20020;-54
2023/05/30 07:38:10;;;;;;;3.72;2.58;;;24.50;51.40;;;;;;6167185;22;20009;-52
2023/05/30 07:40:36;;;;;;;4.53;2.67;;;24.60;51.30;;;;;;6162974;22;20419;-53
2023/05/30 07:43:01;;;;;;;4.00;2.80;;;24.60;51.10;;;;;;6164424;23;20020;-51
2023/05/30 07:45:27;;;;;;;3.20;2.50;;;24.60;51.00;;;;;;6165769;22;20440;-53
2023/05/30 07:47:53;;;;;;;2.65;2.20;;;24.60;51.30;;;;;;6159512;22;20413;-54
2023/05/30 07:50:18;;;;;;;3.78;2.45;;;24.70;49.50;;;;;;6163770;22;20032;-52
2023/05/30 07:52:44;;;;;;;2.22;2.00;;;24.60;48.40;;;;;;6163678;22;20009;-51
2023/05/30 07:55:10;;;;;;;3.03;2.47;;;24.60;47.00;;;;;;6169672;22;20073;-53
2023/05/30 07:57:36;;;;;;;5.93;2.70;;;24.60;46.80;;;;;;6163139;22;20815;-54
2023/05/30 08:00:03;;;;;;;3.42;2.40;;;24.50;46.40;;;;;;6162077;22;20020;-55
2023/05/30 08:02:28;;;;;;;6.35;2.67;;;24.50;46.30;;;;;;6166172;22;20009;-53
2023/05/30 08:04:55;;;;;;;3.08;2.40;;;24.40;45.90;;;;;;6166052;22;20009;-56
2023/05/30 08:07:20;;;;;;;3.67;2.15;;;24.40;45.20;;;;;;6166319;22;20005;-54
2023/05/30 08:09:46;;;;;;;3.78;2.45;;;24.30;45.00;;;;;;6165001;22;20002;-53
2023/05/30 08:12:19;;;;;;;5.32;2.60;;;24.30;44.70;;;;;;6165151;22;20802;-54
2023/05/30 08:14:45;;;;;;;2.80;2.30;;;24.20;45.10;;;;;;6163373;22;20009;-54
2023/05/30 08:17:12;;;;;;;2.88;2.40;;;24.20;45.90;;;;;;6161115;22;20024;-54
2023/05/30 08:19:39;;;;;;;2.92;2.30;;;24.20;45.70;;;;;;6163796;22;20005;-51
2023/05/30 08:22:05;;;;;;;3.00;2.30;;;24.10;45.60;;;;;;6161667;22;20086;-53
2023/05/30 08:24:31;;;;;;;3.45;2.22;;;24.10;46.20;;;;;;6162247;22;20767;-51
2023/05/30 08:26:56;;;;;;;2.78;2.28;;;24.10;45.80;;;;;;6266771;22;20104;-53
2023/05/30 08:29:22;;;;;;;5.55;2.83;;;24.10;45.90;;;;;;6158659;22;20008;-53
2023/05/30 08:31:49;;;;;;;3.08;2.42;;;24.10;45.50;;;;;;6161341;22;19997;-52
2023/05/30 08:34:15;;;;;;;2.90;2.40;;;24.10;45.10;;;;;;6165642;22;20490;-52
2023/05/30 08:36:40;;;;;;;4.22;2.58;;;24.10;45.20;;;;;;6166815;22;20001;-54
2023/05/30 08:39:06;;;;;;;3.10;2.20;;;24.10;45.30;;;;;;6162183;22;20001;-54
2023/05/30 08:41:32;;;;;;;3.63;2.70;;;24.10;45.60;;;;;;6169618;22;20084;-54
2023/05/30 08:43:57;;;;;;;4.20;2.50;;;24.10;45.70;;;;;;6162913;22;20490;-49
2023/05/30 08:46:23;;;;;;;3.75;2.58;;;24.00;46.00;;;;;;6162113;22;20005;-53
2023/05/30 08:48:51;;;;;;;4.07;2.55;;;24.00;46.30;;;;;;6267013;22;20005;-53
2023/05/30 08:51:19;;;;;;;5.25;2.33;;;24.00;46.60;;;;;;6163560;22;20326;-53
2023/05/30 08:53:55;;;;;;;2.33;2.10;;;24.00;46.20;;;;;;6163022;22;20009;-53
2023/05/30 08:56:29;;;;;;;3.63;2.40;;;24.00;45.90;;;;;;6164660;22;20034;-53
2023/05/30 08:58:57;;;;;;;4.40;2.40;;;23.90;45.80;;;;;;6164089;22;20717;-53
2023/05/30 09:01:24;;;;;;;3.10;2.45;;;23.80;46.50;;;;;;6164952;22;20012;-53
2023/05/30 09:03:50;;;;;;;5.97;2.70;;;23.90;47.50;;;;;;6165736;22;20001;-52
2023/05/30 09:06:17;;;;;;;2.47;2.22;;;23.80;47.60;;;;;;6161112;22;20050;-55
2023/05/30 09:08:45;;;;;;;3.47;2.28;;;23.80;46.70;;;;;;6265444;22;20104;-52
2023/05/30 09:11:11;;;;;;;3.55;2.28;;;23.80;46.00;;;;;;6164392;22;20016;-55
2023/05/30 09:13:37;;;;;;;5.40;2.45;;;23.70;45.60;;;;;;6161329;22;20029;-52
2023/05/30 09:16:03;;;;;;;3.30;2.63;;;23.70;46.40;;;;;;6162713;22;20490;-54
2023/05/30 09:18:32;;;;;;;4.95;2.63;;;23.70;46.50;;;;;;6159974;22;20028;-52
2023/05/30 09:20:58;;;;;;;2.83;2.22;;;23.60;46.20;;;;;;6164627;22;20019;-54
2023/05/30 09:23:24;;;;;;;2.47;2.10;;;23.60;46.20;;;;;;6162218;22;20021;-55
2023/05/30 09:25:51;;;;;;;2.65;2.20;;;23.60;45.80;;;;;;6166899;22;20427;-53
2023/05/30 09:28:24;;;;;;;4.07;2.45;;;23.60;45.80;;;;;;6165349;22;20429;-54
2023/05/30 09:30:57;;;;;;;4.20;2.50;;;23.60;45.70;;;;;;6162503;22;20001;-54
2023/05/30 09:33:24;;;;;;;4.88;2.53;;;23.60;46.10;;;;;;6167504;22;20017;-53
2023/05/30 09:35:53;;;;;;;4.13;2.58;;;23.60;45.80;;;;;;6165162;22;20425;-53
2023/05/30 09:38:24;;;;;;;2.65;2.38;;;23.60;46.50;;;;;;6164108;22;20013;-50
2023/05/30 09:41:11;;;;;;;3.83;2.35;;;23.60;46.50;;;;;;6166647;22;20031;-53
2023/05/30 09:43:38;;;;;;;2.72;2.40;;;23.50;45.70;;;;;;6163336;22;20043;-54
2023/05/30 09:46:05;;;;;;;3.42;2.45;;;23.50;46.00;;;;;;6166547;22;20001;-51
2023/05/30 09:48:31;;;;;;;4.07;2.25;;;23.50;46.00;;;;;;6163839;22;20080;-54
2023/05/30 09:51:01;;;;;;;2.63;2.15;;;23.60;46.10;;;;;;6165433;22;20005;-51
2023/05/30 09:53:28;;;;;;;4.53;2.47;;;23.60;45.60;;;;;;6164224;22;20009;-54
2023/05/30 09:55:54;;;;;;;4.57;2.70;;;23.50;45.70;;;;;;6166316;22;20439;-51
2023/05/30 09:58:22;;;;;;;3.05;2.75;;;23.60;46.40;;;;;;6163988;22;20009;-55
2023/05/30 10:00:51;;;;;;;4.47;2.67;;;23.60;47.30;;;;;;6161307;22;20009;-52
2023/05/30 10:03:18;;;;;;;4.43;2.45;;;23.60;47.70;;;;;;6156348;22;20490;-55
2023/05/30 10:05:44;;;;;;;2.60;2.40;;;23.60;47.60;;;;;;6160868;23;20031;-51
2023/05/30 10:08:10;;;;;;;7.15;2.80;;;23.60;47.60;;;;;;6158538;22;20042;-52
2023/05/30 10:10:38;;;;;;;7.35;2.70;;;23.60;47.20;;;;;;6166720;22;20036;-55
2023/05/30 10:13:04;;;;;;;4.97;2.67;;;23.60;47.00;;;;;;6162285;22;20015;-52
2023/05/30 10:15:29;;;;;;;3.67;2.17;;;23.60;47.80;;;;;;6168311;22;20385;-52
2023/05/30 10:18:03;;;;;;;2.95;2.25;;;23.60;48.00;;;;;;6166329;22;20063;-53
2023/05/30 10:20:31;;;;;;;4.30;2.80;;;23.60;48.30;;;;;;6166908;22;20016;-53
2023/05/30 10:22:58;;;;;;;3.20;2.40;;;23.60;48.20;;;;;;6161923;22;20108;-53
2023/05/30 10:25:27;;;;;;;3.40;2.50;;;23.60;47.90;;;;;;6164359;22;20044;-53
2023/05/30 10:27:53;;;;;;;4.57;2.90;;;23.60;47.90;;;;;;6167004;22;20689;-53
2023/05/30 10:43:02;;;;;;;3.03;2.30;;;23.60;47.70;;;;;;5119931;27;20443;-56
2023/05/30 10:45:52;;;;;;;3.28;2.33;;;24.40;47.30;;;;;;5097703;28;20039;-51
2023/05/30 10:48:17;;;;;;;4.15;2.65;;;24.30;47.40;;;;;;5077694;28;20093;-55
2023/05/30 10:50:47;;;;;;;4.03;2.75;;;24.20;46.90;;;;;;5080756;28;20027;-52
2023/05/30 10:53:17;;;;;;;3.72;2.75;;;24.10;46.70;;;;;;5094019;28;20016;-54
2023/05/30 10:55:47;;;;;;;8.02;2.75;;;24.10;46.90;;;;;;5096040;28;20023;-54
2023/05/30 10:58:41;;;;;;;4.13;2.28;;;24.00;47.30;;;;;;5096848;28;20174;-53
2023/05/30 11:01:24;;;;;;;3.45;2.45;;;24.00;47.20;;;;;;5085079;28;20047;-57
2023/05/30 11:04:04;;;;;;;3.08;2.47;;;24.00;47.00;;;;;;5095843;28;20034;-56
2023/05/30 11:06:38;;;;;;;5.17;2.60;;;23.90;46.70;;;;;;5085775;28;20059;-52
2023/05/30 11:09:05;;;;;;;3.28;2.50;;;23.90;46.60;;;;;;5088015;28;20035;-52
2023/05/30 11:11:43;;;;;;;3.25;2.78;;;23.90;46.50;;;;;;5073136;28;20031;-52
2023/05/30 11:14:11;;;;;;;4.30;2.47;;;23.90;46.50;;;;;;5085154;28;20024;-54
2023/05/30 11:16:55;;;;;;;4.82;2.47;;;23.90;46.70;;;;;;5083928;28;20372;-54
2023/05/30 11:19:36;;;;;;;4.60;3.42;;;23.90;47.10;;;;;;5075960;28;20032;-51
2023/05/30 11:22:04;;;;;;;4.88;2.80;;;23.80;47.00;;;;;;5088835;28;20126;-50
2023/05/30 11:24:31;;;;;;;5.53;3.42;;;23.80;46.60;;;;;;5086915;28;20070;-54
2023/05/30 11:26:58;;;;;;;6.28;3.22;;;23.80;46.70;;;;;;5088763;28;20043;-55
2023/05/30 11:29:36;;;;;;;3.95;2.63;;;23.80;46.80;;;;;;5085523;28;20038;-54
2023/05/30 11:32:06;;;;;;;3.47;2.60;;;23.90;47.10;;;;;;5087387;28;20181;-52
2023/05/30 11:34:33;;;;;;;3.53;3.10;;;23.80;47.30;;;;;;5084308;28;20125;-55
2023/05/30 11:36:59;;;;;;;3.05;2.75;;;23.90;47.50;;;;;;5083359;28;20032;-54
2023/05/30 11:39:25;;;;;;;4.07;3.00;;;23.80;47.70;;;;;;5084316;28;20600;-55
2023/05/30 11:41:50;;;;;;;6.57;3.30;;;23.90;48.00;;;;;;5083998;28;20056;-53
2023/05/30 11:44:17;;;;;;;3.92;2.58;;;23.90;48.10;;;;;;5081293;28;20050;-53
2023/05/30 11:46:43;;;;;;;3.13;2.45;;;23.90;48.00;;;;;;5070161;28;20040;-56
2023/05/30 11:49:08;;;;;;;3.70;2.92;;;23.90;47.70;;;;;;5072143;28;20043;-54
2023/05/30 11:51:37;;;;;;;3.17;2.78;;;23.90;47.50;;;;;;5068312;28;20092;-55
2023/05/30 11:54:06;;;;;;;3.47;2.90;;;23.90;47.40;;;;;;5073044;28;20039;-52
2023/05/30 11:56:31;;;;;;;3.70;2.80;;;23.90;47.30;;;;;;5073700;28;20444;-56
2023/05/30 11:58:58;;;;;;;6.57;2.95;;;23.90;47.40;;;;;;5069141;28;20027;-55
2023/05/30 12:01:24;;;;;;;4.22;3.00;;;23.90;47.60;;;;;;5064810;28;21047;-53
2023/05/30 12:03:50;;;;;;;5.10;2.80;;;23.90;47.60;;;;;;5073673;28;20129;-54
2023/05/30 12:06:16;;;;;;;3.78;2.90;;;23.90;47.50;;;;;;5070103;28;20032;-52
2023/05/30 12:08:43;;;;;;;4.47;3.00;;;23.90;47.40;;;;;;5072057;28;20454;-55
2023/05/30 12:11:15;;;;;;;12.27;3.55;;;23.90;47.60;;;;;;5067769;28;20028;-56
2023/05/30 12:13:42;;;;;;;6.43;3.40;;;24.00;47.40;;;;;;5065915;28;20028;-52
2023/05/30 12:16:12;;;;;;;9.52;3.20;;;23.90;47.30;;;;;;5062376;28;20028;-54
2023/05/30 12:18:39;;;;;;;8.68;3.38;;;23.90;47.50;;;;;;5058522;28;21076;-54
2023/05/30 12:21:06;;;;;;;4.10;3.22;;;23.90;47.40;;;;;;5072079;28;20640;-56
2023/05/30 12:23:32;;;;;;;4.22;2.88;;;23.90;47.30;;;;;;5069069;28;20028;-52
2023/05/30 12:25:58;;;;;;;4.00;2.80;;;23.90;47.20;;;;;;5065094;28;20509;-54
2023/05/30 12:28:24;;;;;;;5.15;2.70;;;24.00;47.30;;;;;;5069754;28;20028;-53
2023/05/30 12:30:54;;;;;;;22.77;6.03;;;24.00;47.30;;;;;;5071587;28;20036;-54
2023/05/30 12:33:21;;;;;;;125.20;24.60;;;24.00;47.30;;;;;;5074382;28;20035;-53
2023/05/30 12:35:55;;;;;;;31.17;7.65;;;24.00;47.40;;;;;;5076835;28;20093;-54
2023/05/30 12:38:21;;;;;;;5.95;2.97;;;24.00;47.80;;;;;;5065580;28;21640;-56
2023/05/30 12:40:48;;;;;;;5.78;3.00;;;24.00;48.10;;;;;;5076285;28;20118;-55
2023/05/30 12:43:15;;;;;;;4.47;2.80;;;24.00;48.00;;;;;;5069044;28;20032;-52
2023/05/30 12:45:49;;;;;;;5.03;2.90;;;24.00;48.10;;;;;;5076636;28;20119;-54
2023/05/30 12:48:15;;;;;;;6.03;3.00;;;24.00;48.20;;;;;;5075477;28;20024;-56
2023/05/30 12:50:41;;;;;;;3.60;2.80;;;24.00;48.20;;;;;;5071963;28;20028;-55
2023/05/30 12:53:06;;;;;;;4.35;3.05;;;24.00;48.20;;;;;;5074990;28;20507;-57
2023/05/30 12:55:32;;;;;;;4.47;2.65;;;24.00;48.10;;;;;;5069765;28;20501;-54
2023/05/30 12:57:59;;;;;;;5.70;2.72;;;24.10;48.40;;;;;;5074692;28;20024;-55
2023/05/30 13:00:26;;;;;;;3.50;2.65;;;24.10;48.40;;;;;;5072165;28;20024;-53